x

Neah Bay, - 6nm North Of Cape Flattery, Wa (traffic Separation Lighted Buoy) (46087) Weather Station

6:20 - Wed 24th Dec 2014 All times are PST. -8 hours from GMT.

  • Wind
    11mph, 13mph gusts
  • Sea Temp 51°f
  • Ar Temp 48°f
  • Sea Pressure 1015.1mb
  • Neah Bay, - 6nm North Of Cape Flattery, Wa     (traffic Separation Lighted Buoy)
  • Neah Bay, - 6nm North Of Cape Flattery, Wa     (traffic Separation Lighted Buoy)

More Historic Weather Station data

Upgrade to MSW Pro to gain access to the past 30 days of data for over 8000 Wavebouys and Weather Stations around the globe.

Join Pro

Comparision Forecast

View Surf forecast
   
Qua 12/24 6:20  -   -   -  11 13 mph 1015.1mb 51f 48f
5:50 12ft 13s 9s 13 16 mph 1015mb 51f 48f
5:20  -   -   -  13 16 mph 1014.5mb 51f 48f
4:50 11.5ft 14s 8s 13 16 mph 1014.4mb 51f 48f
4:20  -   -   -  13 18 mph 1014mb 51f 47f
3:50 12.5ft 14s 9s 16 20 mph 1014mb 51f 47f
3:20  -   -   -  18 20 mph 1013.5mb 51f 47f
2:50 12ft 14s 9s 18 25 mph 1013.2mb 51f 47f
2:20  -   -   -  18 22 mph 1013mb 51f 47f
1:50 12ft 14s 9s 18 25 mph 1012.9mb 51f 47f
1:20  -   -   -  20 25 mph 1012.8mb 51f 47f
12:50 12ft 15s 10s 20 25 mph 1012.8mb 51f 47f
12:20  -   -   -  18 20 mph 1012.8mb 51f 47f
11:50 13.5ft 12s 10s 9 13 mph 1012.9mb 51f 47f
11:20  -   -   -  11 16 mph 1013.1mb 51f 47f
10:50 13ft 13s 10s 7 9 mph 1013.2mb 51f 47f
10:20  -   -   -  9 13 mph 1013.4mb 51f 46f
9:50 11.5ft 15s 10s 9 13 mph 1013.4mb 51f 47f
9:20  -   -   -  9 11 mph 1013.1mb 51f 47f
8:50 13ft 14s 10s 9 13 mph 1012.9mb 51f 47f
8:20  -   -   -  9 13 mph 1012.6mb 51f 47f
7:50 12ft 15s 10s 9 11 mph 1012.7mb 51f 47f
7:20  -   -   -  11 13 mph 1012.7mb 51f 47f
6:50 12ft 15s 10s 13 18 mph 1012.8mb 51f 47f
6:20  -   -   -  13 18 mph 1012.7mb 51f 47f
5:50 11ft 15s 9s 9 11 mph 1012.8mb 51f 47f
5:20  -   -   -  9 11 mph 1012.7mb 51f 46f
4:50 13.5ft 11s 9s 20 29 mph 1013.2mb 51f 47f
4:20  -   -   -  16 20 mph 1013.3mb 51f 48f
3:50 13ft 14s 9s 16 22 mph 1013.8mb 51f 48f
3:20  -   -   -  16 20 mph 1014mb 51f 48f
2:50 14ft 10s 9s 20 27 mph 1013.9mb 51f 48f
2:20  -   -   -  13 18 mph 1014.1mb 51f 48f
1:50 14.5ft 16s 9s 18 25 mph 1014.2mb 51f 50f
1:20  -   -   -  13 20 mph 1015.1mb 51f 47f
12:50 14ft 15s 9s 20 27 mph 1015.2mb 52f 47f
12:20  -   -   -  18 22 mph 1015.3mb 52f 51f
Ter 12/23 11:50 14.5ft 14s 9s 16 18 mph 1015.8mb 52f 51f
11:20  -   -   -  20 22 mph 1016.2mb 52f 51f
10:50 14ft 13s 10s 20 25 mph 1016.3mb 52f 51f
10:20  -   -   -  13 22 mph 1016.7mb 52f 49f
9:50 13ft 15s 11s 20 25 mph 1016.8mb 52f 51f
9:20  -   -   -  16 20 mph 1016.9mb 51f 51f
8:50 11ft 13s 11s 16 20 mph 1017.5mb 51f 51f
8:20  -   -   -  16 20 mph 1017.5mb 52f 52f
7:50 8ft 16s 9s 13 18 mph 1017.8mb 52f 52f
7:20  -   -   -  13 18 mph 1018.1mb 52f 52f
6:50 7ft 11s 9s 16 18 mph 1018.3mb 53f 52f
6:20  -   -   -  16 18 mph 1018.4mb 53f 52f
5:50 7ft 16s 9s 16 18 mph 1018.6mb 53f 52f
5:20  -   -   -  16 18 mph 1018.6mb 53f 52f
4:50 7ft 16s 8s 13 16 mph 1018.6mb 53f 52f
4:20  -   -   -  13 16 mph 1018.7mb 53f 52f
3:50 6ft 12s 7s 13 16 mph 1018.8mb 53f 52f
3:20  -   -   -  16 18 mph 1018.9mb 53f 52f
2:50 6ft 12s 7s 18 20 mph 1018.9mb 53f 52f
2:20  -   -   -  13 16 mph 1018.4mb 53f 52f
1:50 5.5ft 13s 7s 11 16 mph 1018.6mb 53f 52f
1:20  -   -   -  16 20 mph 1019mb 53f 50f
12:50 6ft 12s 8s 16 20 mph 1019.1mb 53f 50f
12:20  -   -   -  16 20 mph 1019.6mb 53f 50f
11:50 6ft 13s 8s 13 16 mph 1019.6mb 53f 49f
11:20  -   -   -  11 13 mph 1019.6mb 53f 49f
10:50 7ft 13s 7s 9 11 mph 1020mb 53f 50f
10:20  -   -   -  7 11 mph 1019.9mb 53f 50f
9:50 7ft 12s 6s 13 18 mph 1019.6mb 53f 50f
9:20  -   -   -  27 38 mph 1018.5mb 53f 50f
8:50  -   -   -  13 20 mph 1018.7mb 53f 48f
8:20  -   -   -  22 29 mph 1018mb 53f 47f
7:50 6.5ft 14s 6s 25 29 mph 1018.5mb 53f 47f
7:20  -   -   -  25 29 mph 1018.8mb 53f 47f
6:50 6ft 14s 7s 22 25 mph 1019.7mb 53f 47f
6:20  -   -   -  22 27 mph 1019.9mb 52f 47f
5:50 6.5ft 13s 8s 22 27 mph 1020.4mb 53f 47f
5:20  -   -   -  20 25 mph 1021mb 53f 47f
4:50 6ft 13s 7s 20 25 mph 1021.3mb 53f 47f
3:50 6ft 11s 7s 20 22 mph 1022.2mb 52f 47f
3:20  -   -   -  20 25 mph 1022.7mb 52f 48f
2:50 7ft 11s 7s 20 25 mph 1022.9mb 51f 48f
2:20  -   -   -  25 27 mph 1023.4mb 51f 48f
1:50 7ft 13s 8s 25 29 mph 1023.4mb 51f 48f
1:20  -   -   -  22 27 mph 1024mb 51f 48f
12:50 8ft 11s 8s 20 25 mph 1024.5mb 51f 48f
12:20  -   -   -  22 27 mph 1024.5mb 51f 49f
Seg 12/22 11:50 9ft 14s 8s 22 27 mph 1025.1mb 51f 49f
11:20  -   -   -  22 29 mph 1025mb 51f 48f
10:50 10ft 13s 9s 22 31 mph 1025.2mb 51f 48f
10:20  -   -   -  25 29 mph 1025.5mb 51f 48f
9:50 10ft 11s 8s 25 31 mph 1025.7mb 51f 48f
9:20  -   -   -  22 27 mph 1026mb 52f 49f
8:50 10.5ft 13s 9s 22 27 mph 1026.2mb 51f 48f
8:20  -   -   -  18 25 mph 1026.8mb 51f 48f
7:50 9ft 13s 9s 18 25 mph 1027.1mb 53f 49f
7:20  -   -   -  18 22 mph 1027.1mb 53f 49f
6:50 9ft 13s 10s 18 20 mph 1027mb 53f 49f
6:20  -   -   -  13 20 mph 1027mb 53f 48f
5:50 10ft 13s 10s 16 20 mph 1027.2mb 53f 48f
5:20  -   -   -  13 20 mph 1027.6mb 53f 48f
4:50 10ft 12s 10s 13 16 mph 1028mb 53f 49f
4:20  -   -   -  11 16 mph 1027.9mb 53f 48f
3:50 11.5ft 11s 10s 9 11 mph 1027.6mb 53f 49f
3:20  -   -   -  7 9 mph 1027.8mb 53f 49f
2:50 10ft 13s 10s 7 9 mph 1028mb 53f 49f
2:20  -   -   -  4 9 mph 1028.1mb 53f 49f
1:50 11ft 11s 10s 7 11 mph 1028mb 53f 48f
1:20  -   -   -  7 11 mph 1027.6mb 53f 48f
12:50 12.5ft 12s 10s 7 11 mph 1027.5mb 53f 48f
12:20  -   -   -  4 9 mph 1028.1mb 53f 48f
11:50 11ft 12s 9s 4 9 mph 1028mb 53f 48f
11:20  -   -   -  9 11 mph 1027.6mb 53f 47f
10:50 11ft 14s 10s 11 16 mph 1027.5mb 53f 47f
10:20  -   -   -  9 13 mph 1027.5mb 53f 46f
9:50 10ft 14s 10s 9 13 mph 1027.5mb 52f 47f
9:20  -   -   -  7 11 mph 1027.4mb 53f 46f
8:50 10ft 13s 10s 2 4 mph 1026.6mb 53f 49f
8:20  -   -   -  2 4 mph 1026.2mb 53f 49f
7:50 9.5ft 12s 9s 7 9 mph 1026mb 53f 49f
7:20  -   -   -  9 13 mph 1026.1mb 53f 49f
6:50 10ft 13s 9s 16 20 mph 1025.6mb 53f 50f
6:20  -   -   -  16 20 mph 1025.3mb 53f 50f
5:50 9ft 12s 9s 16 20 mph 1025mb 53f 50f
5:20  -   -   -  13 18 mph 1024.1mb 53f 50f
4:50 11.5ft 12s 9s 13 16 mph 1023.8mb 52f 50f
4:20  -   -   -  13 18 mph 1023.8mb 53f 50f
3:50 10.5ft 12s 9s 13 16 mph 1023.7mb 53f 50f
3:20  -   -   -  16 18 mph 1023.3mb 53f 50f
2:50 10.5ft 12s 9s 11 13 mph 1022.7mb 53f 51f
2:20  -   -   -  11 13 mph 1022.4mb 53f 50f
1:50 10ft 13s 8s 11 13 mph 1021.7mb 53f 51f
1:20  -   -   -  13 16 mph 1021.1mb 53f 51f
12:50 13ft 11s 8s 16 20 mph 1020.8mb 53f 51f
12:20  -   -   -  18 20 mph 1020.8mb 53f 51f
Dom 12/21 11:50 12ft 12s 8s 16 20 mph 1020.4mb 53f 51f
11:20  -   -   -  16 20 mph 1020mb 52f 51f
10:50 12ft 14s 8s 18 25 mph 1019.6mb 52f 51f
10:20  -   -   -  20 25 mph 1018.8mb 52f 53f
9:50 11.5ft 13s 8s 20 25 mph 1018.3mb 53f 53f
9:20  -   -   -  20 25 mph 1017.9mb 53f 53f
8:50 11ft 12s 9s 22 27 mph 1017.7mb 53f 53f
8:20  -   -   -  20 25 mph 1017.4mb 53f 53f
7:50 10.5ft 14s 9s 18 22 mph 1017.1mb 53f 53f
7:20  -   -   -  16 20 mph 1017.1mb 53f 53f
6:50 10.5ft 13s 9s 16 22 mph 1016.9mb 53f 53f
6:20  -   -   -  18 22 mph 1016.9mb 53f 53f
5:50 10.5ft 11s 9s 20 25 mph 1017mb 53f 53f
5:20  -   -   -  20 25 mph 1016.4mb 53f 53f
4:50 9ft 11s 8s 20 25 mph 1016.2mb 53f 53f
4:20  -   -   -  16 22 mph 1015.5mb 53f 53f
3:50 10.5ft 12s 9s 18 25 mph 1015.8mb 53f 53f
3:20  -   -   -  16 22 mph 1015.4mb 53f 53f
2:50 11ft 12s 8s 16 20 mph 1015mb 53f 53f
2:20  -   -   -  16 20 mph 1014.8mb 53f 53f
1:50 12ft 13s 8s 16 20 mph 1014.4mb 53f 53f
1:20  -   -   -  16 20 mph 1014.4mb 53f 53f
12:50 11.5ft 12s 8s 18 22 mph 1014mb 53f 53f
12:20  -   -   -  18 25 mph 1013.7mb 53f 53f
11:50 13.5ft 11s 9s 18 25 mph 1013.1mb 53f 53f
11:20  -   -   -  18 22 mph 1013.1mb 53f 53f
10:50 13ft 13s 9s 18 22 mph 1012.3mb 53f 53f
10:20  -   -   -  18 22 mph 1011.9mb 53f 53f
9:50 12ft 11s 9s 20 27 mph 1011.6mb 53f 53f
9:20  -   -   -  13 18 mph 1011.3mb 53f 51f
8:50 10.5ft 12s 9s 13 16 mph 1010.9mb 53f 49f
8:20  -   -   -  18 22 mph 1010.1mb 53f 53f
7:50 9.5ft 13s 9s 20 22 mph 1009.7mb 53f 53f
7:20  -   -   -  20 22 mph 1009mb 53f 53f
6:50 10.5ft 12s 9s 16 20 mph 1008.8mb 53f 53f
6:20  -   -   -  20 25 mph 1007.9mb 53f 52f
5:50 10.5ft 13s 9s 20 27 mph 1007.5mb 53f 53f
5:20  -   -   -  20 27 mph 1007.2mb 53f 53f
4:50 10ft 14s 9s 16 20 mph 1006.8mb 53f 50f
4:20  -   -   -  16 22 mph 1006.5mb 53f 48f
3:50 11ft 12s 8s 16 20 mph 1006mb 53f 51f
3:20  -   -   -  22 27 mph 1005.7mb 53f 51f